sensor_id;sensor_type;location;lat;lon;timestamp;pressure;altitude;pressure_sealevel;temperature
74536;BMP180;63013;51.104;-115.370;2023-06-14T00:01:20;86038.40;;;24.30
74536;BMP180;63013;51.104;-115.370;2023-06-14T00:03:48;86054.60;;;24.30
74536;BMP180;63013;51.104;-115.370;2023-06-14T00:06:15;86065.60;;;24.30
74536;BMP180;63013;51.104;-115.370;2023-06-14T00:08:43;86064.20;;;24.32
74536;BMP180;63013;51.104;-115.370;2023-06-14T00:11:11;86059.20;;;24.30
74536;BMP180;63013;51.104;-115.370;2023-06-14T00:13:38;86058.60;;;24.36
74536;BMP180;63013;51.104;-115.370;2023-06-14T00:16:05;86061.20;;;24.36
74536;BMP180;63013;51.104;-115.370;2023-06-14T00:18:33;86064.20;;;24.38
74536;BMP180;63013;51.104;-115.370;2023-06-14T00:20:59;86068.60;;;24.40
74536;BMP180;63013;51.104;-115.370;2023-06-14T00:23:28;86066.40;;;24.40
74536;BMP180;63013;51.104;-115.370;2023-06-14T00:25:55;86078.00;;;24.38
74536;BMP180;63013;51.104;-115.370;2023-06-14T00:28:22;86096.40;;;24.40
74536;BMP180;63013;51.104;-115.370;2023-06-14T00:30:50;86116.20;;;24.40
74536;BMP180;63013;51.104;-115.370;2023-06-14T00:33:17;86123.60;;;24.38
74536;BMP180;63013;51.104;-115.370;2023-06-14T00:35:44;86109.40;;;24.40
74536;BMP180;63013;51.104;-115.370;2023-06-14T00:38:11;86108.40;;;24.40
74536;BMP180;63013;51.104;-115.370;2023-06-14T00:40:38;86110.00;;;24.40
74536;BMP180;63013;51.104;-115.370;2023-06-14T00:43:05;86090.00;;;24.38
74536;BMP180;63013;51.104;-115.370;2023-06-14T00:45:32;86086.60;;;24.34
74536;BMP180;63013;51.104;-115.370;2023-06-14T00:48:03;86095.80;;;24.34
74536;BMP180;63013;51.104;-115.370;2023-06-14T00:50:33;86105.60;;;24.34
74536;BMP180;63013;51.104;-115.370;2023-06-14T00:53:01;86100.60;;;24.38
74536;BMP180;63013;51.104;-115.370;2023-06-14T00:55:30;86101.00;;;24.32
74536;BMP180;63013;51.104;-115.370;2023-06-14T00:57:57;86104.20;;;24.30
74536;BMP180;63013;51.104;-115.370;2023-06-14T01:00:24;86109.20;;;24.30
74536;BMP180;63013;51.104;-115.370;2023-06-14T01:02:51;86107.80;;;24.30
74536;BMP180;63013;51.104;-115.370;2023-06-14T01:05:18;86105.40;;;24.30
74536;BMP180;63013;51.104;-115.370;2023-06-14T01:07:55;86109.60;;;24.30
74536;BMP180;63013;51.104;-115.370;2023-06-14T01:11:02;86109.80;;;24.30
74536;BMP180;63013;51.104;-115.370;2023-06-14T01:13:39;86104.80;;;24.30
74536;BMP180;63013;51.104;-115.370;2023-06-14T01:16:08;86103.00;;;24.30
74536;BMP180;63013;51.104;-115.370;2023-06-14T01:18:35;86101.20;;;24.30
74536;BMP180;63013;51.104;-115.370;2023-06-14T01:21:03;86092.60;;;24.30
74536;BMP180;63013;51.104;-115.370;2023-06-14T01:23:33;86082.20;;;24.30
74536;BMP180;63013;51.104;-115.370;2023-06-14T01:26:01;86081.00;;;24.28
74536;BMP180;63013;51.104;-115.370;2023-06-14T01:28:33;86077.40;;;24.22
74536;BMP180;63013;51.104;-115.370;2023-06-14T01:31:04;86097.60;;;24.20
74536;BMP180;63013;51.104;-115.370;2023-06-14T01:33:33;86123.20;;;24.20
74536;BMP180;63013;51.104;-115.370;2023-06-14T01:36:03;86132.20;;;24.20
74536;BMP180;63013;51.104;-115.370;2023-06-14T01:38:33;86114.40;;;24.20
74536;BMP180;63013;51.104;-115.370;2023-06-14T01:41:01;86092.60;;;24.18
74536;BMP180;63013;51.104;-115.370;2023-06-14T01:43:31;86093.20;;;24.10
74536;BMP180;63013;51.104;-115.370;2023-06-14T01:46:00;86099.60;;;24.10
74536;BMP180;63013;51.104;-115.370;2023-06-14T01:48:28;86100.00;;;24.00
74536;BMP180;63013;51.104;-115.370;2023-06-14T01:50:55;86100.00;;;24.00
74536;BMP180;63013;51.104;-115.370;2023-06-14T01:53:22;86099.00;;;24.00
74536;BMP180;63013;51.104;-115.370;2023-06-14T01:55:49;86098.60;;;24.00
74536;BMP180;63013;51.104;-115.370;2023-06-14T01:58:17;86103.20;;;23.98
74536;BMP180;63013;51.104;-115.370;2023-06-14T02:00:44;86098.20;;;23.90
74536;BMP180;63013;51.104;-115.370;2023-06-14T02:03:12;86095.00;;;23.90
74536;BMP180;63013;51.104;-115.370;2023-06-14T02:05:39;86093.60;;;23.90
74536;BMP180;63013;51.104;-115.370;2023-06-14T02:08:07;86090.20;;;23.90
74536;BMP180;63013;51.104;-115.370;2023-06-14T02:10:34;86098.20;;;23.90
74536;BMP180;63013;51.104;-115.370;2023-06-14T02:13:01;86103.20;;;23.90
74536;BMP180;63013;51.104;-115.370;2023-06-14T02:15:28;86105.60;;;23.90
74536;BMP180;63013;51.104;-115.370;2023-06-14T02:18:04;86112.40;;;23.90
74536;BMP180;63013;51.104;-115.370;2023-06-14T02:20:31;86115.60;;;23.90
74536;BMP180;63013;51.104;-115.370;2023-06-14T02:23:00;86118.60;;;23.90
74536;BMP180;63013;51.104;-115.370;2023-06-14T02:25:27;86124.00;;;23.90
74536;BMP180;63013;51.104;-115.370;2023-06-14T02:27:55;86122.80;;;23.80
74536;BMP180;63013;51.104;-115.370;2023-06-14T02:30:22;86122.40;;;23.80
74536;BMP180;63013;51.104;-115.370;2023-06-14T02:32:49;86123.20;;;23.80
74536;BMP180;63013;51.104;-115.370;2023-06-14T02:35:17;86132.00;;;23.80
74536;BMP180;63013;51.104;-115.370;2023-06-14T02:37:45;86126.20;;;23.80
74536;BMP180;63013;51.104;-115.370;2023-06-14T02:40:12;86128.00;;;23.80
74536;BMP180;63013;51.104;-115.370;2023-06-14T02:42:40;86132.20;;;23.78
74536;BMP180;63013;51.104;-115.370;2023-06-14T02:45:08;86129.80;;;23.70
74536;BMP180;63013;51.104;-115.370;2023-06-14T02:47:35;86135.80;;;23.70
74536;BMP180;63013;51.104;-115.370;2023-06-14T02:50:03;86133.20;;;23.70
74536;BMP180;63013;51.104;-115.370;2023-06-14T02:52:30;86126.40;;;23.70
74536;BMP180;63013;51.104;-115.370;2023-06-14T02:54:59;86121.60;;;23.70
74536;BMP180;63013;51.104;-115.370;2023-06-14T02:57:26;86122.80;;;23.66
74536;BMP180;63013;51.104;-115.370;2023-06-14T02:59:53;86135.80;;;23.60
74536;BMP180;63013;51.104;-115.370;2023-06-14T03:02:21;86130.80;;;23.60
74536;BMP180;63013;51.104;-115.370;2023-06-14T03:04:48;86133.20;;;23.60
74536;BMP180;63013;51.104;-115.370;2023-06-14T03:07:15;86130.20;;;23.60
74536;BMP180;63013;51.104;-115.370;2023-06-14T03:09:46;86126.00;;;23.60
74536;BMP180;63013;51.104;-115.370;2023-06-14T03:12:13;86118.60;;;23.60
74536;BMP180;63013;51.104;-115.370;2023-06-14T03:14:41;86113.20;;;23.50
74536;BMP180;63013;51.104;-115.370;2023-06-14T03:17:08;86109.20;;;23.50
74536;BMP180;63013;51.104;-115.370;2023-06-14T03:19:36;86105.40;;;23.50
74536;BMP180;63013;51.104;-115.370;2023-06-14T03:22:04;86089.60;;;23.50
74536;BMP180;63013;51.104;-115.370;2023-06-14T03:24:31;86082.20;;;23.50
74536;BMP180;63013;51.104;-115.370;2023-06-14T03:27:03;86089.40;;;23.50
74536;BMP180;63013;51.104;-115.370;2023-06-14T03:29:31;86083.40;;;23.50
74536;BMP180;63013;51.104;-115.370;2023-06-14T03:32:00;86078.20;;;23.50
74536;BMP180;63013;51.104;-115.370;2023-06-14T03:34:27;86082.40;;;23.50
74536;BMP180;63013;51.104;-115.370;2023-06-14T03:36:54;86082.20;;;23.50
74536;BMP180;63013;51.104;-115.370;2023-06-14T03:39:22;86081.20;;;23.50
74536;BMP180;63013;51.104;-115.370;2023-06-14T03:41:49;86076.80;;;23.40
74536;BMP180;63013;51.104;-115.370;2023-06-14T03:44:20;86081.60;;;23.40
74536;BMP180;63013;51.104;-115.370;2023-06-14T03:46:47;86078.20;;;23.38
74536;BMP180;63013;51.104;-115.370;2023-06-14T03:49:14;86076.40;;;23.32
74536;BMP180;63013;51.104;-115.370;2023-06-14T03:51:43;86077.80;;;23.32
74536;BMP180;63013;51.104;-115.370;2023-06-14T03:54:10;86076.00;;;23.34
74536;BMP180;63013;51.104;-115.370;2023-06-14T03:56:37;86074.20;;;23.36
74536;BMP180;63013;51.104;-115.370;2023-06-14T03:59:05;86067.00;;;23.36
74536;BMP180;63013;51.104;-115.370;2023-06-14T04:01:32;86064.80;;;23.30
74536;BMP180;63013;51.104;-115.370;2023-06-14T04:03:59;86072.60;;;23.30
74536;BMP180;63013;51.104;-115.370;2023-06-14T04:06:27;86072.40;;;23.20
74536;BMP180;63013;51.104;-115.370;2023-06-14T04:08:59;86073.00;;;23.20
74536;BMP180;63013;51.104;-115.370;2023-06-14T04:11:31;86070.80;;;23.10
74536;BMP180;63013;51.104;-115.370;2023-06-14T04:13:58;86066.60;;;23.10
74536;BMP180;63013;51.104;-115.370;2023-06-14T04:16:26;86063.80;;;23.04
74536;BMP180;63013;51.104;-115.370;2023-06-14T04:18:55;86055.60;;;23.00
74536;BMP180;63013;51.104;-115.370;2023-06-14T04:21:24;86047.60;;;23.00
74536;BMP180;63013;51.104;-115.370;2023-06-14T04:23:54;86038.80;;;22.90
74536;BMP180;63013;51.104;-115.370;2023-06-14T04:26:22;86029.60;;;22.90
74536;BMP180;63013;51.104;-115.370;2023-06-14T04:28:56;86015.00;;;22.90
74536;BMP180;63013;51.104;-115.370;2023-06-14T04:31:29;86002.20;;;22.90
74536;BMP180;63013;51.104;-115.370;2023-06-14T04:34:00;85998.40;;;22.88
74536;BMP180;63013;51.104;-115.370;2023-06-14T04:36:27;86004.20;;;22.80
74536;BMP180;63013;51.104;-115.370;2023-06-14T04:38:54;86005.80;;;22.80
74536;BMP180;63013;51.104;-115.370;2023-06-14T04:41:22;85999.40;;;22.80
74536;BMP180;63013;51.104;-115.370;2023-06-14T04:43:50;85991.40;;;22.80
74536;BMP180;63013;51.104;-115.370;2023-06-14T04:46:20;85985.80;;;22.70
74536;BMP180;63013;51.104;-115.370;2023-06-14T04:48:48;85989.60;;;22.70
74536;BMP180;63013;51.104;-115.370;2023-06-14T04:51:17;85992.60;;;22.70
74536;BMP180;63013;51.104;-115.370;2023-06-14T04:53:47;85992.60;;;22.70
74536;BMP180;63013;51.104;-115.370;2023-06-14T04:56:16;85988.80;;;22.66
74536;BMP180;63013;51.104;-115.370;2023-06-14T04:58:43;85985.40;;;22.70
74536;BMP180;63013;51.104;-115.370;2023-06-14T05:01:11;85984.40;;;22.62
74536;BMP180;63013;51.104;-115.370;2023-06-14T05:03:39;85976.80;;;22.70
74536;BMP180;63013;51.104;-115.370;2023-06-14T05:06:07;85970.80;;;22.64
74536;BMP180;63013;51.104;-115.370;2023-06-14T05:08:34;85962.60;;;22.66
74536;BMP180;63013;51.104;-115.370;2023-06-14T05:11:02;85952.20;;;22.60
74536;BMP180;63013;51.104;-115.370;2023-06-14T05:13:29;85951.00;;;22.60
74536;BMP180;63013;51.104;-115.370;2023-06-14T05:15:56;85960.40;;;22.60
74536;BMP180;63013;51.104;-115.370;2023-06-14T05:18:23;85966.80;;;22.60
74536;BMP180;63013;51.104;-115.370;2023-06-14T05:20:52;85965.40;;;22.60
74536;BMP180;63013;51.104;-115.370;2023-06-14T05:23:19;85968.60;;;22.60
74536;BMP180;63013;51.104;-115.370;2023-06-14T05:25:46;85966.40;;;22.60
74536;BMP180;63013;51.104;-115.370;2023-06-14T05:28:13;85963.20;;;22.60
74536;BMP180;63013;51.104;-115.370;2023-06-14T05:30:40;85965.20;;;22.60
74536;BMP180;63013;51.104;-115.370;2023-06-14T05:33:08;85958.80;;;22.60
74536;BMP180;63013;51.104;-115.370;2023-06-14T05:35:35;85958.20;;;22.60
74536;BMP180;63013;51.104;-115.370;2023-06-14T05:38:02;85956.40;;;22.50
74536;BMP180;63013;51.104;-115.370;2023-06-14T05:40:29;85954.80;;;22.50
74536;BMP180;63013;51.104;-115.370;2023-06-14T05:42:57;85948.60;;;22.50
74536;BMP180;63013;51.104;-115.370;2023-06-14T05:45:24;85942.00;;;22.50
74536;BMP180;63013;51.104;-115.370;2023-06-14T05:47:52;85938.20;;;22.50
74536;BMP180;63013;51.104;-115.370;2023-06-14T05:50:21;85928.40;;;22.40
74536;BMP180;63013;51.104;-115.370;2023-06-14T05:52:48;85911.60;;;22.40
74536;BMP180;63013;51.104;-115.370;2023-06-14T05:55:17;85898.20;;;22.40
74536;BMP180;63013;51.104;-115.370;2023-06-14T05:57:44;85906.20;;;22.40
74536;BMP180;63013;51.104;-115.370;2023-06-14T06:00:11;85911.00;;;22.40
74536;BMP180;63013;51.104;-115.370;2023-06-14T06:02:44;85914.00;;;22.40
74536;BMP180;63013;51.104;-115.370;2023-06-14T06:05:13;85915.60;;;22.36
74536;BMP180;63013;51.104;-115.370;2023-06-14T06:07:40;85920.80;;;22.30
74536;BMP180;63013;51.104;-115.370;2023-06-14T06:10:08;85918.80;;;22.30
74536;BMP180;63013;51.104;-115.370;2023-06-14T06:12:35;85919.20;;;22.30
74536;BMP180;63013;51.104;-115.370;2023-06-14T06:15:03;85919.60;;;22.30
74536;BMP180;63013;51.104;-115.370;2023-06-14T06:17:30;85926.80;;;22.28
74536;BMP180;63013;51.104;-115.370;2023-06-14T06:19:57;85931.00;;;22.24
74536;BMP180;63013;51.104;-115.370;2023-06-14T06:22:24;85929.40;;;22.20
74536;BMP180;63013;51.104;-115.370;2023-06-14T06:24:51;85929.20;;;22.20
74536;BMP180;63013;51.104;-115.370;2023-06-14T06:27:18;85926.40;;;22.20
74536;BMP180;63013;51.104;-115.370;2023-06-14T06:29:46;85923.20;;;22.20
74536;BMP180;63013;51.104;-115.370;2023-06-14T06:32:15;85923.00;;;22.20
74536;BMP180;63013;51.104;-115.370;2023-06-14T06:34:43;85928.20;;;22.20
74536;BMP180;63013;51.104;-115.370;2023-06-14T06:37:11;85927.60;;;22.22
74536;BMP180;63013;51.104;-115.370;2023-06-14T06:39:38;85923.40;;;22.22
74536;BMP180;63013;51.104;-115.370;2023-06-14T06:42:05;85924.40;;;22.26
74536;BMP180;63013;51.104;-115.370;2023-06-14T06:44:33;85918.40;;;22.30
74536;BMP180;63013;51.104;-115.370;2023-06-14T06:47:00;85919.20;;;22.30
74536;BMP180;63013;51.104;-115.370;2023-06-14T06:49:28;85912.00;;;22.30
74536;BMP180;63013;51.104;-115.370;2023-06-14T06:52:04;85901.00;;;22.30
74536;BMP180;63013;51.104;-115.370;2023-06-14T06:54:32;85898.20;;;22.28
74536;BMP180;63013;51.104;-115.370;2023-06-14T06:57:00;85900.20;;;22.26
74536;BMP180;63013;51.104;-115.370;2023-06-14T06:59:30;85894.80;;;22.20
74536;BMP180;63013;51.104;-115.370;2023-06-14T07:01:57;85891.60;;;22.20
74536;BMP180;63013;51.104;-115.370;2023-06-14T07:04:24;85884.40;;;22.20
74536;BMP180;63013;51.104;-115.370;2023-06-14T07:06:52;85877.40;;;22.10
74536;BMP180;63013;51.104;-115.370;2023-06-14T07:09:19;85879.60;;;22.10
74536;BMP180;63013;51.104;-115.370;2023-06-14T07:11:47;85898.80;;;22.10
74536;BMP180;63013;51.104;-115.370;2023-06-14T07:14:14;85905.40;;;22.06
74536;BMP180;63013;51.104;-115.370;2023-06-14T07:16:41;85897.20;;;22.00
74536;BMP180;63013;51.104;-115.370;2023-06-14T07:19:10;85888.80;;;22.00
74536;BMP180;63013;51.104;-115.370;2023-06-14T07:21:37;85886.20;;;22.00
74536;BMP180;63013;51.104;-115.370;2023-06-14T07:24:07;85875.80;;;21.96
74536;BMP180;63013;51.104;-115.370;2023-06-14T07:26:34;85868.40;;;21.90
74536;BMP180;63013;51.104;-115.370;2023-06-14T07:29:02;85860.40;;;21.90
74536;BMP180;63013;51.104;-115.370;2023-06-14T07:31:29;85857.80;;;21.90
74536;BMP180;63013;51.104;-115.370;2023-06-14T07:33:56;85852.00;;;21.90
74536;BMP180;63013;51.104;-115.370;2023-06-14T07:36:23;85846.40;;;21.88
74536;BMP180;63013;51.104;-115.370;2023-06-14T07:38:51;85847.60;;;21.80
74536;BMP180;63013;51.104;-115.370;2023-06-14T07:41:18;85851.40;;;21.80
74536;BMP180;63013;51.104;-115.370;2023-06-14T07:43:45;85857.20;;;21.80
74536;BMP180;63013;51.104;-115.370;2023-06-14T07:46:12;85864.60;;;21.80
74536;BMP180;63013;51.104;-115.370;2023-06-14T07:48:39;85869.40;;;21.74
74536;BMP180;63013;51.104;-115.370;2023-06-14T07:51:07;85866.40;;;21.70
74536;BMP180;63013;51.104;-115.370;2023-06-14T07:53:34;85858.80;;;21.70
74536;BMP180;63013;51.104;-115.370;2023-06-14T07:56:01;85849.60;;;21.70
74536;BMP180;63013;51.104;-115.370;2023-06-14T07:58:28;85849.20;;;21.70
74536;BMP180;63013;51.104;-115.370;2023-06-14T08:00:55;85846.00;;;21.70
74536;BMP180;63013;51.104;-115.370;2023-06-14T08:03:22;85832.80;;;21.70
74536;BMP180;63013;51.104;-115.370;2023-06-14T08:05:50;85828.00;;;21.62
74536;BMP180;63013;51.104;-115.370;2023-06-14T08:08:18;85826.00;;;21.60
74536;BMP180;63013;51.104;-115.370;2023-06-14T08:10:45;85828.40;;;21.60
74536;BMP180;63013;51.104;-115.370;2023-06-14T08:13:12;85835.40;;;21.60
74536;BMP180;63013;51.104;-115.370;2023-06-14T08:15:39;85840.00;;;21.60
74536;BMP180;63013;51.104;-115.370;2023-06-14T08:18:06;85845.80;;;21.60
74536;BMP180;63013;51.104;-115.370;2023-06-14T08:20:33;85840.00;;;21.58
74536;BMP180;63013;51.104;-115.370;2023-06-14T08:23:03;85836.60;;;21.58
74536;BMP180;63013;51.104;-115.370;2023-06-14T08:25:31;85832.80;;;21.56
74536;BMP180;63013;51.104;-115.370;2023-06-14T08:27:58;85831.80;;;21.50
74536;BMP180;63013;51.104;-115.370;2023-06-14T08:30:26;85832.00;;;21.50
74536;BMP180;63013;51.104;-115.370;2023-06-14T08:32:53;85831.80;;;21.50
74536;BMP180;63013;51.104;-115.370;2023-06-14T08:35:23;85832.80;;;21.50
74536;BMP180;63013;51.104;-115.370;2023-06-14T08:37:50;85829.40;;;21.50
74536;BMP180;63013;51.104;-115.370;2023-06-14T08:40:23;85822.20;;;21.50
74536;BMP180;63013;51.104;-115.370;2023-06-14T08:42:55;85819.60;;;21.50
74536;BMP180;63013;51.104;-115.370;2023-06-14T08:45:23;85818.80;;;21.48
74536;BMP180;63013;51.104;-115.370;2023-06-14T08:47:53;85822.60;;;21.44
74536;BMP180;63013;51.104;-115.370;2023-06-14T08:50:28;85814.60;;;21.40
74536;BMP180;63013;51.104;-115.370;2023-06-14T08:53:02;85809.80;;;21.40
74536;BMP180;63013;51.104;-115.370;2023-06-14T08:55:31;85806.60;;;21.40
74536;BMP180;63013;51.104;-115.370;2023-06-14T08:57:59;85802.60;;;21.40
74536;BMP180;63013;51.104;-115.370;2023-06-14T09:00:28;85800.80;;;21.40
74536;BMP180;63013;51.104;-115.370;2023-06-14T09:02:55;85799.20;;;21.40
74536;BMP180;63013;51.104;-115.370;2023-06-14T09:05:27;85797.80;;;21.30
74536;BMP180;63013;51.104;-115.370;2023-06-14T09:07:54;85795.80;;;21.30
74536;BMP180;63013;51.104;-115.370;2023-06-14T09:10:23;85797.00;;;21.30
74536;BMP180;63013;51.104;-115.370;2023-06-14T09:12:52;85798.00;;;21.30
74536;BMP180;63013;51.104;-115.370;2023-06-14T09:15:19;85800.00;;;21.30
74536;BMP180;63013;51.104;-115.370;2023-06-14T09:17:47;85803.40;;;21.30
74536;BMP180;63013;51.104;-115.370;2023-06-14T09:20:15;85802.40;;;21.28
74536;BMP180;63013;51.104;-115.370;2023-06-14T09:22:45;85805.80;;;21.20
74536;BMP180;63013;51.104;-115.370;2023-06-14T09:25:12;85812.40;;;21.20
74536;BMP180;63013;51.104;-115.370;2023-06-14T09:27:42;85812.80;;;21.20
74536;BMP180;63013;51.104;-115.370;2023-06-14T09:30:10;85813.20;;;21.20
74536;BMP180;63013;51.104;-115.370;2023-06-14T09:32:40;85817.00;;;21.20
74536;BMP180;63013;51.104;-115.370;2023-06-14T09:35:09;85817.20;;;21.20
74536;BMP180;63013;51.104;-115.370;2023-06-14T09:37:36;85812.80;;;21.20
74536;BMP180;63013;51.104;-115.370;2023-06-14T09:40:06;85811.00;;;21.20
74536;BMP180;63013;51.104;-115.370;2023-06-14T09:42:34;85815.40;;;21.20
74536;BMP180;63013;51.104;-115.370;2023-06-14T09:45:03;85812.60;;;21.20
74536;BMP180;63013;51.104;-115.370;2023-06-14T09:47:31;85804.80;;;21.10
74536;BMP180;63013;51.104;-115.370;2023-06-14T09:49:58;85810.80;;;21.10
74536;BMP180;63013;51.104;-115.370;2023-06-14T09:52:28;85801.40;;;21.10
74536;BMP180;63013;51.104;-115.370;2023-06-14T09:54:59;85797.80;;;21.10
74536;BMP180;63013;51.104;-115.370;2023-06-14T09:57:29;85796.20;;;21.10
74536;BMP180;63013;51.104;-115.370;2023-06-14T10:00:03;85796.40;;;21.10
74536;BMP180;63013;51.104;-115.370;2023-06-14T10:02:37;85798.00;;;21.10
74536;BMP180;63013;51.104;-115.370;2023-06-14T10:05:07;85789.40;;;21.10
74536;BMP180;63013;51.104;-115.370;2023-06-14T10:07:53;85780.80;;;21.10
74536;BMP180;63013;51.104;-115.370;2023-06-14T10:10:22;85773.00;;;21.10
74536;BMP180;63013;51.104;-115.370;2023-06-14T10:12:49;85771.00;;;21.10
74536;BMP180;63013;51.104;-115.370;2023-06-14T10:18:45;85770.60;;;21.00
74536;BMP180;63013;51.104;-115.370;2023-06-14T10:24:15;85762.60;;;21.00
74536;BMP180;63013;51.104;-115.370;2023-06-14T10:26:54;85757.40;;;21.00
74536;BMP180;63013;51.104;-115.370;2023-06-14T10:29:23;85763.60;;;21.00
74536;BMP180;63013;51.104;-115.370;2023-06-14T10:31:57;85757.60;;;20.98
74536;BMP180;63013;51.104;-115.370;2023-06-14T10:34:31;85749.80;;;20.96
74536;BMP180;63013;51.104;-115.370;2023-06-14T10:37:12;85749.60;;;20.90
74536;BMP180;63013;51.104;-115.370;2023-06-14T10:39:42;85747.60;;;20.90
74536;BMP180;63013;51.104;-115.370;2023-06-14T10:42:11;85750.40;;;20.90
74536;BMP180;63013;51.104;-115.370;2023-06-14T10:47:35;85741.40;;;20.90
74536;BMP180;63013;51.104;-115.370;2023-06-14T10:50:09;85743.40;;;20.90
74536;BMP180;63013;51.104;-115.370;2023-06-14T10:52:44;85753.20;;;20.90
74536;BMP180;63013;51.104;-115.370;2023-06-14T10:55:16;85749.80;;;20.90
74536;BMP180;63013;51.104;-115.370;2023-06-14T10:57:54;85746.40;;;20.90
74536;BMP180;63013;51.104;-115.370;2023-06-14T11:00:28;85748.20;;;20.90
74536;BMP180;63013;51.104;-115.370;2023-06-14T11:06:28;85740.40;;;20.88
74536;BMP180;63013;51.104;-115.370;2023-06-14T11:11:54;85733.60;;;20.84
74536;BMP180;63013;51.104;-115.370;2023-06-14T11:14:23;85734.00;;;20.80
74536;BMP180;63013;51.104;-115.370;2023-06-14T11:16:50;85740.20;;;20.80
74536;BMP180;63013;51.104;-115.370;2023-06-14T11:19:17;85740.60;;;20.80
74536;BMP180;63013;51.104;-115.370;2023-06-14T11:21:50;85744.40;;;20.80
74536;BMP180;63013;51.104;-115.370;2023-06-14T11:24:19;85747.60;;;20.80
74536;BMP180;63013;51.104;-115.370;2023-06-14T11:26:47;85746.60;;;20.80
74536;BMP180;63013;51.104;-115.370;2023-06-14T11:29:16;85747.40;;;20.80
74536;BMP180;63013;51.104;-115.370;2023-06-14T11:31:44;85739.20;;;20.80
74536;BMP180;63013;51.104;-115.370;2023-06-14T11:34:14;85726.60;;;20.80
74536;BMP180;63013;51.104;-115.370;2023-06-14T11:36:43;85726.00;;;20.80
74536;BMP180;63013;51.104;-115.370;2023-06-14T11:39:10;85729.60;;;20.80
74536;BMP180;63013;51.104;-115.370;2023-06-14T11:41:43;85731.40;;;20.80
74536;BMP180;63013;51.104;-115.370;2023-06-14T11:44:11;85729.40;;;20.80
74536;BMP180;63013;51.104;-115.370;2023-06-14T11:46:39;85734.40;;;20.80
74536;BMP180;63013;51.104;-115.370;2023-06-14T11:49:07;85742.00;;;20.78
74536;BMP180;63013;51.104;-115.370;2023-06-14T11:51:36;85746.40;;;20.78
74536;BMP180;63013;51.104;-115.370;2023-06-14T11:54:06;85743.20;;;20.74
74536;BMP180;63013;51.104;-115.370;2023-06-14T11:56:34;85742.20;;;20.70
74536;BMP180;63013;51.104;-115.370;2023-06-14T11:59:04;85745.00;;;20.70
74536;BMP180;63013;51.104;-115.370;2023-06-14T12:01:35;85741.20;;;20.70
74536;BMP180;63013;51.104;-115.370;2023-06-14T12:04:02;85731.80;;;20.70
74536;BMP180;63013;51.104;-115.370;2023-06-14T12:06:31;85738.40;;;20.70
74536;BMP180;63013;51.104;-115.370;2023-06-14T12:09:08;85730.60;;;20.70
74536;BMP180;63013;51.104;-115.370;2023-06-14T12:11:45;85730.00;;;20.64
74536;BMP180;63013;51.104;-115.370;2023-06-14T12:14:12;85731.00;;;20.66
74536;BMP180;63013;51.104;-115.370;2023-06-14T12:16:40;85728.40;;;20.62
74536;BMP180;63013;51.104;-115.370;2023-06-14T12:19:17;85729.00;;;20.62
74536;BMP180;63013;51.104;-115.370;2023-06-14T12:21:47;85727.80;;;20.62
74536;BMP180;63013;51.104;-115.370;2023-06-14T12:24:18;85722.80;;;20.60
74536;BMP180;63013;51.104;-115.370;2023-06-14T12:26:46;85720.60;;;20.60
74536;BMP180;63013;51.104;-115.370;2023-06-14T12:29:13;85718.60;;;20.60
74536;BMP180;63013;51.104;-115.370;2023-06-14T12:31:41;85716.80;;;20.60
74536;BMP180;63013;51.104;-115.370;2023-06-14T12:34:08;85716.60;;;20.60
74536;BMP180;63013;51.104;-115.370;2023-06-14T12:36:35;85721.80;;;20.60
74536;BMP180;63013;51.104;-115.370;2023-06-14T12:39:08;85724.20;;;20.60
74536;BMP180;63013;51.104;-115.370;2023-06-14T12:41:36;85724.00;;;20.60
74536;BMP180;63013;51.104;-115.370;2023-06-14T12:44:04;85732.60;;;20.60
74536;BMP180;63013;51.104;-115.370;2023-06-14T12:46:34;85727.20;;;20.60
74536;BMP180;63013;51.104;-115.370;2023-06-14T12:49:08;85728.40;;;20.54
74536;BMP180;63013;51.104;-115.370;2023-06-14T12:51:35;85731.00;;;20.50
74536;BMP180;63013;51.104;-115.370;2023-06-14T12:54:02;85741.80;;;20.50
74536;BMP180;63013;51.104;-115.370;2023-06-14T12:56:29;85749.80;;;20.50
74536;BMP180;63013;51.104;-115.370;2023-06-14T12:58:56;85755.40;;;20.50
74536;BMP180;63013;51.104;-115.370;2023-06-14T13:01:24;85756.00;;;20.50
74536;BMP180;63013;51.104;-115.370;2023-06-14T13:03:51;85757.80;;;20.50
74536;BMP180;63013;51.104;-115.370;2023-06-14T13:06:23;85757.80;;;20.50
74536;BMP180;63013;51.104;-115.370;2023-06-14T13:08:51;85763.80;;;20.50
74536;BMP180;63013;51.104;-115.370;2023-06-14T13:11:21;85768.60;;;20.50
74536;BMP180;63013;51.104;-115.370;2023-06-14T13:13:48;85771.80;;;20.50
74536;BMP180;63013;51.104;-115.370;2023-06-14T13:16:15;85768.20;;;20.50
74536;BMP180;63013;51.104;-115.370;2023-06-14T13:18:43;85769.60;;;20.50
74536;BMP180;63013;51.104;-115.370;2023-06-14T13:21:10;85778.80;;;20.50
74536;BMP180;63013;51.104;-115.370;2023-06-14T13:23:37;85788.00;;;20.44
74536;BMP180;63013;51.104;-115.370;2023-06-14T13:26:04;85795.40;;;20.40
74536;BMP180;63013;51.104;-115.370;2023-06-14T13:28:31;85803.80;;;20.42
74536;BMP180;63013;51.104;-115.370;2023-06-14T13:30:59;85804.20;;;20.40
74536;BMP180;63013;51.104;-115.370;2023-06-14T13:33:27;85805.80;;;20.40
74536;BMP180;63013;51.104;-115.370;2023-06-14T13:35:54;85813.00;;;20.40
74536;BMP180;63013;51.104;-115.370;2023-06-14T13:38:21;85816.40;;;20.40
74536;BMP180;63013;51.104;-115.370;2023-06-14T13:40:48;85816.60;;;20.40
74536;BMP180;63013;51.104;-115.370;2023-06-14T13:43:14;85821.00;;;20.40
74536;BMP180;63013;51.104;-115.370;2023-06-14T13:45:41;85830.80;;;20.40
74536;BMP180;63013;51.104;-115.370;2023-06-14T13:48:09;85834.60;;;20.40
74536;BMP180;63013;51.104;-115.370;2023-06-14T13:50:36;85842.20;;;20.40
74536;BMP180;63013;51.104;-115.370;2023-06-14T13:53:03;85842.80;;;20.40
74536;BMP180;63013;51.104;-115.370;2023-06-14T13:55:31;85844.20;;;20.40